Time;durP1;ratioP1;P1;durP2;ratioP2;P2;SDS_P1;SDS_P2;PMS_P1;PMS_P2;Temp;Humidity;BMP_temperature;BMP_pressure;BME280_temperature;BME280_humidity;BME280_pressure;Samples;Min_cycle;Max_cycle;Signal;HPM_P1;HPM_P2
2022/04/14 00:00:20;;;;;;;46.77;31.33;;;;;;;-145.18;100.00;46660.41;5032641;28;20037;-77
2022/04/14 00:02:46;;;;;;;50.50;32.67;;;;;;;-145.18;100.00;46660.41;5038424;28;20462;-77
2022/04/14 00:05:11;;;;;;;47.90;32.23;;;;;;;-145.18;100.00;46660.41;5037115;28;20033;-77
2022/04/14 00:07:37;;;;;;;54.53;33.07;;;;;;;-145.18;100.00;46660.41;5052109;28;20037;-77
2022/04/14 00:10:04;;;;;;;56.43;34.83;;;;;;;-145.18;100.00;46660.41;5052637;28;20538;-77
2022/04/14 00:12:29;;;;;;;56.17;35.43;;;;;;;-145.18;100.00;46660.41;5051886;28;20080;-76
2022/04/14 00:14:54;;;;;;;57.53;34.70;;;;;;;-145.18;100.00;46660.41;5052672;28;20362;-77
2022/04/14 00:17:20;;;;;;;55.17;34.50;;;;;;;-145.18;100.00;46660.41;5052239;28;20401;-77
2022/04/14 00:19:45;;;;;;;50.27;33.13;;;;;;;-145.18;100.00;46660.41;5050959;28;20090;-76
2022/04/14 00:22:11;;;;;;;49.63;32.70;;;;;;;-145.18;100.00;46660.41;5051911;28;20040;-77
2022/04/14 00:24:36;;;;;;;54.70;35.03;;;;;;;-145.18;100.00;46660.41;5051957;28;20423;-77
2022/04/14 00:27:02;;;;;;;50.17;32.27;;;;;;;-145.18;100.00;46660.41;5052041;28;20025;-77
2022/04/14 00:29:27;;;;;;;48.37;30.30;;;;;;;-145.18;100.00;46660.41;5052262;28;20041;-77
2022/04/14 00:31:53;;;;;;;49.97;32.93;;;;;;;-145.18;100.00;46660.41;5051911;28;20108;-77
2022/04/14 00:34:18;;;;;;;50.33;32.27;;;;;;;-145.18;100.00;46660.41;5051913;28;20099;-77
2022/04/14 00:36:43;;;;;;;49.10;32.10;;;;;;;-145.18;100.00;46660.41;5050434;28;20075;-77
2022/04/14 00:39:09;;;;;;;51.23;33.17;;;;;;;-145.18;100.00;46660.41;5050729;28;20044;-77
2022/04/14 00:41:37;;;;;;;45.27;31.43;;;;;;;-145.18;100.00;46660.41;5051343;28;20116;-77
2022/04/14 00:44:03;;;;;;;53.37;31.50;;;;;;;-145.18;100.00;46660.41;5052105;28;20079;-77
2022/04/14 00:46:28;;;;;;;46.67;30.73;;;;;;;-145.18;100.00;46660.41;5051398;28;20757;-77
2022/04/14 00:48:54;;;;;;;49.30;30.40;;;;;;;-145.18;100.00;46660.41;5051938;28;20063;-77
2022/04/14 00:51:19;;;;;;;41.87;28.13;;;;;;;-145.18;100.00;46660.41;5050517;28;20033;-76
2022/04/14 00:53:44;;;;;;;36.83;25.57;;;;;;;-145.18;100.00;46660.41;5051561;28;20037;-76
2022/04/14 00:56:10;;;;;;;36.17;24.13;;;;;;;-145.18;100.00;46660.41;5051586;28;20547;-77
2022/04/14 00:58:36;;;;;;;42.13;25.73;;;;;;;-145.18;100.00;46660.41;5051567;28;20040;-77
2022/04/14 01:01:05;;;;;;;40.90;26.30;;;;;;;-145.18;100.00;46660.41;5051573;28;20087;-77
2022/04/14 01:03:31;;;;;;;36.33;24.47;;;;;;;-145.18;100.00;46660.41;5051545;28;20270;-77
2022/04/14 01:05:58;;;;;;;38.40;24.87;;;;;;;-145.18;100.00;46660.41;5051356;28;20270;-77
2022/04/14 01:08:25;;;;;;;83.07;27.00;;;;;;;-145.18;100.00;46660.41;5051352;28;20405;-77
2022/04/14 01:10:50;;;;;;;60.63;26.20;;;;;;;-145.18;100.00;46660.41;5051262;28;20262;-76
2022/04/14 01:13:17;;;;;;;60.83;28.27;;;;;;;-145.18;100.00;46660.41;5050959;28;20293;-76
2022/04/14 01:15:46;;;;;;;37.13;27.67;;;;;;;-145.18;100.00;46660.41;5051058;28;20029;-76
2022/04/14 01:18:12;;;;;;;38.07;27.47;;;;;;;-145.18;100.00;46660.41;5051657;28;20261;-76
2022/04/14 01:20:41;;;;;;;45.60;30.33;;;;;;;-145.18;100.00;46660.41;5050897;28;20707;-76
2022/04/14 01:23:08;;;;;;;46.50;31.93;;;;;;;-145.18;100.00;46660.41;5049549;28;20025;-77
2022/04/14 01:25:35;;;;;;;42.53;29.60;;;;;;;-145.18;100.00;46658.44;5050687;28;20768;-77
2022/04/14 01:28:02;;;;;;;46.90;30.70;;;;;;;-145.18;100.00;46656.50;5051321;28;20273;-76
2022/04/14 01:30:27;;;;;;;51.47;33.53;;;;;;;-145.18;100.00;46656.50;5050776;28;20289;-77
2022/04/14 01:32:53;;;;;;;47.53;32.00;;;;;;;-145.18;100.00;46658.44;5050358;28;20290;-76
2022/04/14 01:35:18;;;;;;;44.43;31.43;;;;;;;-145.18;100.00;46660.41;5051008;28;20041;-77
2022/04/14 01:37:43;;;;;;;43.27;30.97;;;;;;;-145.18;100.00;46660.41;5050497;28;20048;-77
2022/04/14 01:40:09;;;;;;;47.27;31.03;;;;;;;-145.18;100.00;46658.44;5051109;28;20150;-77
2022/04/14 01:42:34;;;;;;;45.80;29.67;;;;;;;-145.18;100.00;46660.41;5049668;28;20029;-77
2022/04/14 01:45:00;;;;;;;53.50;31.13;;;;;;;-145.18;100.00;46654.53;5050876;28;20438;-77
2022/04/14 01:47:25;;;;;;;91.03;28.47;;;;;;;-145.18;100.00;46658.44;5050297;28;20029;-77
2022/04/14 01:49:52;;;;;;;39.77;24.90;;;;;;;-145.18;100.00;46658.44;5050978;28;20401;-77
2022/04/14 01:52:18;;;;;;;71.87;19.77;;;;;;;-145.18;100.00;46656.50;5050350;28;20037;-76
2022/04/14 01:54:43;;;;;;;59.57;20.00;;;;;;;-145.18;100.00;46660.41;5050464;28;20331;-77
2022/04/14 01:57:09;;;;;;;33.23;24.47;;;;;;;-145.18;100.00;46656.50;5050077;28;20048;-77
2022/04/14 01:59:34;;;;;;;37.20;26.43;;;;;;;-145.18;100.00;46660.41;5050364;28;20025;-77
2022/04/14 02:01:59;;;;;;;44.23;29.47;;;;;;;-145.18;100.00;46658.44;5293385;22;20195;-76
2022/04/14 02:04:25;;;;;;;35.43;24.43;;;;;;;-145.18;100.00;46652.59;5001809;28;20050;-77
2022/04/14 02:06:51;;;;;;;323.93;20.17;;;;;;;-145.18;100.00;46658.44;4995307;28;20034;-76
2022/04/14 02:09:16;;;;;;;362.20;19.60;;;;;;;-145.18;100.00;46660.41;4991080;28;20039;-77
2022/04/14 02:11:41;;;;;;;35.23;15.10;;;;;;;-145.18;100.00;46660.41;4991485;28;20042;-76
2022/04/14 02:14:07;;;;;;;223.80;15.10;;;;;;;-145.18;100.00;46652.59;4990605;28;20030;-76
2022/04/14 02:16:32;;;;;;;12.50;9.37;;;;;;;-145.18;100.00;46652.59;4991085;28;20113;-76
2022/04/14 02:18:57;;;;;;;35.47;23.60;;;;;;;-145.18;100.00;46656.50;4990773;28;20026;-76
2022/04/14 02:21:23;;;;;;;32.17;20.87;;;;;;;-145.18;100.00;46654.53;4991342;28;20042;-76
2022/04/14 02:23:48;;;;;;;31.57;21.23;;;;;;;-145.18;100.00;46656.50;4990915;28;20058;-76
2022/04/14 02:26:15;;;;;;;39.43;25.30;;;;;;;-145.18;100.00;46658.44;4990955;28;20076;-76
2022/04/14 02:28:41;;;;;;;33.83;23.37;;;;;;;-145.18;100.00;46658.44;4990902;28;20034;-76
2022/04/14 02:31:06;;;;;;;29.97;21.53;;;;;;;-145.18;100.00;46656.50;4990958;28;20272;-76
2022/04/14 02:33:32;;;;;;;33.73;22.10;;;;;;;-145.18;100.00;46660.41;4990872;28;20051;-77
2022/04/14 02:35:57;;;;;;;37.93;24.77;;;;;;;-145.18;100.00;46660.41;4991027;28;20037;-77
2022/04/14 02:38:22;;;;;;;49.53;28.80;;;;;;;-145.18;100.00;46660.41;4990958;28;20042;-76
2022/04/14 02:40:48;;;;;;;52.80;31.00;;;;;;;-145.18;100.00;46658.44;4989750;28;20034;-76
2022/04/14 02:43:13;;;;;;;46.63;30.40;;;;;;;-145.18;100.00;46660.41;4990388;28;20121;-77
2022/04/14 02:45:39;;;;;;;48.03;29.67;;;;;;;-145.18;100.00;46660.41;4990880;28;20527;-77
2022/04/14 02:48:04;;;;;;;44.83;28.50;;;;;;;-145.18;100.00;46656.50;4990629;28;20034;-77
2022/04/14 02:50:30;;;;;;;50.77;29.77;;;;;;;-145.18;100.00;46660.41;4990958;28;20498;-77
2022/04/14 02:52:55;;;;;;;45.90;28.20;;;;;;;-145.18;100.00;46654.53;4990311;28;20038;-76
2022/04/14 02:55:21;;;;;;;39.83;24.87;;;;;;;-145.18;100.00;46656.50;4994324;28;20034;-76
2022/04/14 02:57:48;;;;;;;18.93;12.57;;;;;;;-145.18;100.00;46654.53;4994712;28;20434;-76
2022/04/14 03:00:14;;;;;;;21.87;15.27;;;;;;;-145.18;100.00;46656.50;4994714;28;20108;-76
2022/04/14 03:02:40;;;;;;;25.93;17.90;;;;;;;-145.18;100.00;46652.59;4993862;28;20848;-76
2022/04/14 03:05:07;;;;;;;14.30;9.93;;;;;;;-145.18;100.00;46658.44;4994794;28;20069;-76
2022/04/14 03:07:33;;;;;;;22.17;14.20;;;;;;;-145.18;100.00;46654.53;4994232;28;20314;-75
2022/04/14 03:09:59;;;;;;;24.43;16.20;;;;;;;-145.18;100.00;46658.44;4994651;28;20307;-76
2022/04/14 03:12:24;;;;;;;35.67;22.53;;;;;;;-145.18;100.00;46658.44;4994040;28;20354;-75
2022/04/14 03:14:50;;;;;;;29.10;20.60;;;;;;;-145.18;100.00;46654.53;4994949;28;20038;-76
2022/04/14 03:17:16;;;;;;;27.47;18.53;;;;;;;-145.18;100.00;46656.50;4993829;28;20050;-75
2022/04/14 03:19:41;;;;;;;36.67;23.17;;;;;;;-145.18;100.00;46656.50;4994679;28;20224;-75
2022/04/14 03:22:06;;;;;;;29.37;18.87;;;;;;;-145.18;100.00;46652.59;4992672;28;20031;-76
2022/04/14 03:24:32;;;;;;;35.80;20.90;;;;;;;-145.18;100.00;46658.44;4994370;28;20030;-76
2022/04/14 03:26:58;;;;;;;33.07;19.87;;;;;;;-145.18;100.00;46658.44;4994436;28;20109;-76
2022/04/14 03:29:24;;;;;;;33.03;20.13;;;;;;;-145.18;100.00;46656.50;4994036;28;20022;-76
2022/04/14 03:31:49;;;;;;;35.00;22.10;;;;;;;-145.18;100.00;46652.59;4994208;28;20037;-75
2022/04/14 03:34:15;;;;;;;34.67;22.33;;;;;;;-145.18;100.00;46650.63;4993840;28;20030;-76
2022/04/14 03:36:40;;;;;;;39.00;23.47;;;;;;;-145.18;100.00;46658.44;4994301;28;20034;-76
2022/04/14 03:39:06;;;;;;;41.30;23.93;;;;;;;-145.18;100.00;46656.50;4993944;28;20510;-76
2022/04/14 03:41:31;;;;;;;39.20;24.43;;;;;;;-145.18;100.00;46656.50;4994143;28;20089;-76
2022/04/14 03:43:59;;;;;;;33.83;21.73;;;;;;;-145.18;100.00;46652.59;4993567;28;20034;-76
2022/04/14 03:46:25;;;;;;;43.70;24.30;;;;;;;-145.18;100.00;46656.50;4994162;28;20121;-76
2022/04/14 03:48:50;;;;;;;36.97;24.20;;;;;;;-145.18;100.00;46656.50;4993765;28;20367;-76
2022/04/14 03:51:16;;;;;;;41.73;24.23;;;;;;;-145.18;100.00;46656.50;4993942;28;20057;-75
2022/04/14 03:53:42;;;;;;;38.13;24.23;;;;;;;-145.18;100.00;46656.50;4992334;28;20046;-76
2022/04/14 03:56:07;;;;;;;37.00;23.63;;;;;;;-145.18;100.00;46656.50;4993805;28;20038;-76
2022/04/14 03:58:32;;;;;;;37.50;23.33;;;;;;;-145.18;100.00;46660.41;4993112;28;20286;-76
2022/04/14 04:00:58;;;;;;;41.47;23.73;;;;;;;-145.18;100.00;46652.59;4993794;28;20039;-76
2022/04/14 04:03:23;;;;;;;40.50;23.13;;;;;;;-145.18;100.00;46654.53;5024256;28;20439;-76
2022/04/14 04:05:49;;;;;;;35.57;21.43;;;;;;;-145.18;100.00;46652.59;5052331;28;20481;-76
2022/04/14 04:08:14;;;;;;;37.67;23.40;;;;;;;-145.18;100.00;46656.50;5052418;28;20116;-75
2022/04/14 04:10:40;;;;;;;35.17;23.47;;;;;;;-145.18;100.00;46656.50;5052432;28;20065;-75
2022/04/14 04:13:05;;;;;;;43.17;23.90;;;;;;;-145.18;100.00;46658.44;5052375;28;20468;-76
2022/04/14 04:15:31;;;;;;;42.67;24.17;;;;;;;-145.18;100.00;46660.41;5052544;28;20030;-76
2022/04/14 04:17:56;;;;;;;43.43;24.77;;;;;;;-145.18;100.00;46656.50;5052427;28;20033;-76
2022/04/14 04:20:22;;;;;;;48.07;26.80;;;;;;;-145.18;100.00;46660.41;5052401;28;20071;-76
2022/04/14 04:22:47;;;;;;;38.67;24.53;;;;;;;-145.18;100.00;46654.53;5052275;28;20090;-75
2022/04/14 04:25:12;;;;;;;39.03;22.50;;;;;;;-145.18;100.00;46656.50;5052290;28;20077;-76
2022/04/14 04:27:38;;;;;;;42.60;23.33;;;;;;;-145.18;100.00;46656.50;5052115;28;20044;-76
2022/04/14 04:30:05;;;;;;;37.07;22.40;;;;;;;-145.18;100.00;46654.53;5034515;28;20060;-76
2022/04/14 04:32:33;;;;;;;33.20;21.43;;;;;;;-145.18;100.00;46658.44;5051839;28;20037;-77
2022/04/14 04:35:02;;;;;;;36.33;23.27;;;;;;;-145.18;100.00;46660.41;5052212;28;20749;-77
2022/04/14 04:37:28;;;;;;;41.03;23.33;;;;;;;-145.18;100.00;46656.50;5061269;28;20327;-76
2022/04/14 04:39:54;;;;;;;37.67;23.43;;;;;;;-145.18;100.00;46660.41;5072582;28;20273;-77
2022/04/14 04:42:19;;;;;;;41.30;26.30;;;;;;;-145.18;100.00;46654.53;5071621;28;20413;-76
2022/04/14 04:44:45;;;;;;;40.30;24.93;;;;;;;-145.18;100.00;46660.41;5071904;28;20253;-76
2022/04/14 04:47:10;;;;;;;37.37;22.37;;;;;;;-145.18;100.00;46660.41;5071185;28;20094;-76
2022/04/14 04:49:36;;;;;;;38.27;24.23;;;;;;;-145.18;100.00;46660.41;5071068;28;20035;-77
2022/04/14 04:52:01;;;;;;;40.63;24.20;;;;;;;-145.18;100.00;46656.50;5073264;28;20439;-76
2022/04/14 04:54:27;;;;;;;38.70;24.73;;;;;;;-145.18;100.00;46660.41;5079283;28;20537;-76
2022/04/14 04:56:52;;;;;;;42.57;25.90;;;;;;;-145.18;100.00;46660.41;5063910;28;20032;-76
2022/04/14 04:59:17;;;;;;;45.37;27.03;;;;;;;-145.18;100.00;46660.41;5089405;28;20035;-76
2022/04/14 05:01:43;;;;;;;43.53;25.50;;;;;;;-145.18;100.00;46658.44;5091903;28;20092;-76
2022/04/14 05:04:11;;;;;;;39.67;25.37;;;;;;;-145.18;100.00;46658.44;5089935;28;20467;-76
2022/04/14 05:06:36;;;;;;;41.77;25.40;;;;;;;-145.18;100.00;46660.41;5074152;28;20484;-76
2022/04/14 05:09:02;;;;;;;39.60;24.50;;;;;;;-145.18;100.00;46658.44;5091464;28;20361;-76
2022/04/14 05:11:27;;;;;;;37.00;22.13;;;;;;;-145.18;100.00;46658.44;5073662;28;20035;-77
2022/04/14 05:13:53;;;;;;;47.67;26.90;;;;;;;-145.18;100.00;46660.41;5091307;28;20036;-77
2022/04/14 05:16:18;;;;;;;45.87;27.50;;;;;;;-145.18;100.00;46658.44;5090664;28;20064;-76
2022/04/14 05:18:43;;;;;;;41.70;24.40;;;;;;;-145.18;100.00;46658.44;5091343;28;20052;-76
2022/04/14 05:21:09;;;;;;;40.37;25.53;;;;;;;-145.18;100.00;46660.41;5091539;28;20036;-77
2022/04/14 05:23:34;;;;;;;44.07;26.40;;;;;;;-145.18;100.00;46660.41;5073320;28;20438;-77
2022/04/14 05:26:00;;;;;;;40.27;26.97;;;;;;;-145.18;100.00;46656.50;5091365;28;20561;-77
2022/04/14 05:28:25;;;;;;;40.43;26.43;;;;;;;-145.18;100.00;46660.41;5072877;28;20173;-76
2022/04/14 05:30:51;;;;;;;34.60;22.83;;;;;;;-145.18;100.00;46621.31;5091462;28;20028;-76
2022/04/14 05:33:16;;;;;;;35.67;24.20;;;;;;;-145.18;100.00;46621.31;5090879;28;20036;-76
2022/04/14 05:35:44;;;;;;;38.47;24.50;;;;;;;-145.18;100.00;46621.31;5091598;28;20119;-76
2022/04/14 05:38:09;;;;;;;38.57;25.17;;;;;;;-145.18;100.00;46621.31;5077437;28;20028;-75
2022/04/14 05:40:41;;;;;;;39.57;25.40;;;;;;;-145.18;100.00;46617.41;5054033;28;20348;-76
2022/04/14 05:43:06;;;;;;;41.90;26.00;;;;;;;-145.18;100.00;46619.38;5069909;28;20033;-76
2022/04/14 05:45:32;;;;;;;42.17;26.20;;;;;;;-145.18;100.00;46621.31;5071071;28;20273;-76
2022/04/14 05:47:58;;;;;;;51.77;27.47;;;;;;;-145.18;100.00;46617.41;5070417;28;20029;-76
2022/04/14 05:50:23;;;;;;;48.43;28.53;;;;;;;-145.18;100.00;46617.41;5071103;28;20265;-76
2022/04/14 05:52:48;;;;;;;46.90;27.60;;;;;;;-145.18;100.00;46617.41;5070414;28;20068;-76
2022/04/14 05:55:14;;;;;;;43.23;28.63;;;;;;;-145.18;100.00;46617.41;5070562;28;20035;-76
2022/04/14 05:57:39;;;;;;;44.87;27.60;;;;;;;-145.18;100.00;46619.38;5052616;28;20063;-76
2022/04/14 06:00:05;;;;;;;42.03;28.73;;;;;;;-145.18;100.00;46619.38;5070687;28;20503;-76
2022/04/14 06:02:31;;;;;;;44.20;28.67;;;;;;;-145.18;100.00;46613.50;5069993;28;20048;-77
2022/04/14 06:04:56;;;;;;;43.17;28.33;;;;;;;-145.18;100.00;46619.38;5070384;28;20269;-77
2022/04/14 06:07:21;;;;;;;48.50;28.03;;;;;;;-145.18;100.00;46615.47;5070604;28;20028;-76
2022/04/14 06:09:47;;;;;;;43.23;27.03;;;;;;;-145.18;100.00;46611.56;5070418;28;20027;-77
2022/04/14 06:12:12;;;;;;;46.27;26.87;;;;;;;-145.18;100.00;46615.47;5070232;28;20075;-76
2022/04/14 06:14:37;;;;;;;44.87;27.50;;;;;;;-145.18;100.00;46615.47;5069919;28;20488;-77
2022/04/14 06:17:03;;;;;;;39.33;27.63;;;;;;;-145.18;100.00;46613.50;5070320;28;20033;-76
2022/04/14 06:19:28;;;;;;;37.17;25.33;;;;;;;-145.18;100.00;46613.50;5070247;28;20029;-77
2022/04/14 06:21:54;;;;;;;46.47;28.37;;;;;;;-145.18;100.00;46615.47;5070460;28;20029;-77
2022/04/14 06:24:19;;;;;;;38.93;26.43;;;;;;;-145.18;100.00;46615.47;5069882;28;20028;-76
2022/04/14 06:26:45;;;;;;;41.00;27.43;;;;;;;-145.18;100.00;46613.50;5070604;28;20403;-77
2022/04/14 06:29:10;;;;;;;42.63;27.10;;;;;;;-145.18;100.00;46615.47;5069719;28;20054;-76
2022/04/14 06:31:37;;;;;;;46.30;27.87;;;;;;;-145.18;100.00;46615.47;5070388;28;20021;-77
2022/04/14 06:34:03;;;;;;;42.03;24.50;;;;;;;-145.18;100.00;46613.50;5051936;28;20046;-77
2022/04/14 06:36:28;;;;;;;38.80;25.73;;;;;;;-145.18;100.00;46617.41;5066820;28;20253;-77
2022/04/14 06:38:54;;;;;;;41.20;25.50;;;;;;;-145.18;100.00;46613.50;5069062;28;20599;-76
2022/04/14 06:41:19;;;;;;;39.90;27.00;;;;;;;-145.18;100.00;46613.50;5073295;28;20119;-77
2022/04/14 06:43:49;;;;;;;35.90;23.03;;;;;;;-145.18;100.00;46617.41;5065636;28;20024;-76
2022/04/14 06:46:15;;;;;;;32.97;21.37;;;;;;;-145.18;100.00;46617.41;5080055;28;20507;-76
2022/04/14 06:48:40;;;;;;;30.67;19.87;;;;;;;-145.18;100.00;46617.41;5089358;28;20261;-76
2022/04/14 06:51:06;;;;;;;31.87;21.50;;;;;;;-145.18;100.00;46617.41;5071832;28;20020;-76
2022/04/14 06:53:31;;;;;;;31.53;20.67;;;;;;;-145.18;100.00;46621.31;5086488;28;20468;-77
2022/04/14 06:55:56;;;;;;;29.97;19.13;;;;;;;-145.18;100.00;46621.31;5089288;28;20050;-77
2022/04/14 06:58:22;;;;;;;28.47;18.50;;;;;;;-145.18;100.00;46623.28;5071258;28;20146;-77
2022/04/14 07:00:47;;;;;;;28.20;18.03;;;;;;;-145.18;100.00;46623.28;5083689;28;20032;-76
2022/04/14 07:03:13;;;;;;;25.17;17.93;;;;;;;-145.18;100.00;46625.22;5085534;28;20558;-77
2022/04/14 07:05:38;;;;;;;26.13;17.67;;;;;;;-145.18;100.00;46625.22;5082167;28;20064;-76
2022/04/14 07:08:04;;;;;;;26.80;17.77;;;;;;;-145.18;100.00;46623.28;5076149;28;20084;-77
2022/04/14 07:10:29;;;;;;;30.70;17.47;;;;;;;-145.18;100.00;46629.13;5089694;28;20361;-77
2022/04/14 07:12:55;;;;;;;27.77;16.80;;;;;;;-145.18;100.00;46629.13;5071378;28;20047;-76
2022/04/14 07:15:21;;;;;;;26.97;17.20;;;;;;;-145.18;100.00;46631.09;5087802;28;20036;-77
2022/04/14 07:17:47;;;;;;;27.30;17.10;;;;;;;-145.18;100.00;46633.06;5056526;28;20114;-77
2022/04/14 07:20:12;;;;;;;27.07;17.23;;;;;;;-145.18;100.00;46636.94;5089260;28;20451;-77
2022/04/14 07:22:45;;;;;;;29.93;16.63;;;;;;;-145.18;100.00;46635.00;5089686;28;20472;-77
2022/04/14 07:25:10;;;;;;;23.80;15.67;;;;;;;-145.18;100.00;46636.94;5089127;28;20074;-77
2022/04/14 07:27:36;;;;;;;25.43;14.83;;;;;;;-145.18;100.00;46640.88;5089766;28;20422;-77
2022/04/14 07:30:01;;;;;;;23.77;14.90;;;;;;;-145.18;100.00;46644.78;5089354;28;20040;-76
2022/04/14 07:32:34;;;;;;;25.80;14.43;;;;;;;-145.18;100.00;46644.78;5089554;28;20571;-77
2022/04/14 07:35:00;;;;;;;23.40;14.77;;;;;;;-145.18;100.00;46648.69;5089372;28;20077;-77
2022/04/14 07:37:25;;;;;;;29.80;14.00;;;;;;;-145.18;100.00;46656.50;5089253;28;20028;-77
2022/04/14 07:39:50;;;;;;;20.17;13.27;;;;;;;-145.18;100.00;46652.59;5089951;28;20036;-77
2022/04/14 07:42:16;;;;;;;19.50;14.10;;;;;;;-145.18;100.00;46652.59;5092994;28;20472;-77
2022/04/14 07:44:41;;;;;;;23.87;13.57;;;;;;;-145.18;100.00;46648.69;5092962;28;20054;-77
2022/04/14 07:47:07;;;;;;;28.43;14.07;;;;;;;-145.18;100.00;46640.88;5092907;28;20040;-76
2022/04/14 07:49:32;;;;;;;24.43;13.50;;;;;;;-145.18;100.00;46642.81;5092632;28;20511;-77
2022/04/14 07:51:58;;;;;;;25.07;13.37;;;;;;;-145.18;100.00;46636.94;5093129;28;20032;-76
2022/04/14 07:54:23;;;;;;;20.77;13.60;;;;;;;-145.18;100.00;46642.81;5092651;28;20491;-76
2022/04/14 07:56:48;;;;;;;21.73;13.37;;;;;;;-145.18;100.00;46621.31;5074758;28;20028;-76
2022/04/14 07:59:14;;;;;;;26.87;13.60;;;;;;;-145.18;100.00;46601.78;5092307;28;20754;-76
2022/04/14 08:01:39;;;;;;;19.97;12.77;;;;;;;-145.18;100.00;46588.13;5092804;28;20062;-76
2022/04/14 08:04:04;;;;;;;23.77;12.30;;;;;;;-145.18;100.00;46562.72;5092048;28;20067;-76
2022/04/14 08:06:31;;;;;;;19.97;13.30;;;;;;;-145.18;100.00;46566.63;5092647;28;20036;-77
2022/04/14 08:08:57;;;;;;;25.17;13.70;;;;;;;-145.18;100.00;46562.72;5092357;28;20043;-76
2022/04/14 08:11:22;;;;;;;24.30;14.60;;;;;;;-145.18;100.00;46627.19;5092340;28;20031;-76
2022/04/14 08:13:47;;;;;;;26.07;12.87;;;;;;;-145.18;100.00;46578.34;5089187;28;20404;-77
2022/04/14 08:16:13;;;;;;;23.43;13.30;;;;;;;-145.18;100.00;46597.88;5062504;28;20040;-76
2022/04/14 08:18:40;;;;;;;25.27;13.80;;;;;;;-145.18;100.00;46599.84;5092025;28;20028;-76
2022/04/14 08:21:06;;;;;;;18.80;12.97;;;;;;;-145.18;100.00;46603.75;5092385;28;20483;-77
2022/04/14 08:23:32;;;;;;;25.90;14.37;;;;;;;-145.18;100.00;46568.59;5091801;28;20032;-76
2022/04/14 08:25:58;;;;;;;19.53;12.53;;;;;;;-145.18;100.00;46562.72;5092424;28;20028;-76
2022/04/14 08:28:24;;;;;;;24.60;13.03;;;;;;;-145.18;100.00;46547.09;5091550;28;20046;-77
2022/04/14 08:30:49;;;;;;;24.83;14.23;;;;;;;-145.18;100.00;46562.72;5092615;28;20546;-77
2022/04/14 08:33:16;;;;;;;23.60;13.93;;;;;;;-145.18;100.00;46521.72;5091497;28;20044;-76
2022/04/14 08:35:42;;;;;;;23.13;14.07;;;;;;;-145.18;100.00;46529.53;5092329;28;20043;-77
2022/04/14 08:38:08;;;;;;;25.50;13.67;;;;;;;-145.18;100.00;46527.56;5091740;28;20032;-76
2022/04/14 08:40:38;;;;;;;25.27;13.93;;;;;;;-145.18;100.00;46537.34;5091773;28;20490;-76
2022/04/14 08:43:05;;;;;;;20.20;12.33;;;;;;;-145.18;100.00;46539.28;5091918;28;20032;-77
2022/04/14 08:45:51;;;;;;;21.97;13.27;;;;;;;-145.18;100.00;46543.19;5091721;28;20035;-77
2022/04/14 08:48:20;;;;;;;21.15;13.32;;;;;;;-145.18;100.00;46545.16;5091053;28;20040;-76
2022/04/14 08:50:50;;;;;;;24.17;12.53;;;;;;;-145.18;100.00;46549.06;5087536;28;20474;-76
2022/04/14 08:53:18;;;;;;;18.90;13.00;;;;;;;-145.18;100.00;46545.16;5087966;28;20373;-76
2022/04/14 08:55:43;;;;;;;22.67;13.03;;;;;;;-145.18;100.00;46549.06;5091573;28;20476;-77
2022/04/14 08:58:13;;;;;;;23.27;12.53;;;;;;;-145.18;100.00;46543.19;5091366;28;20107;-76
2022/04/14 09:00:40;;;;;;;19.97;11.90;;;;;;;-145.18;100.00;46554.91;5092346;28;20028;-77
2022/04/14 09:03:06;;;;;;;22.10;13.63;;;;;;;-145.18;100.00;46541.25;5091065;28;20052;-77
2022/04/14 09:05:31;;;;;;;27.30;15.27;;;;;;;-145.18;100.00;46551.00;5090769;28;20032;-76
2022/04/14 09:07:56;;;;;;;21.80;12.60;;;;;;;-145.18;100.00;46541.25;5091299;28;20035;-76
2022/04/14 09:10:22;;;;;;;24.47;13.23;;;;;;;-145.18;100.00;46545.16;5091067;28;20401;-76
2022/04/14 09:12:49;;;;;;;22.17;13.17;;;;;;;-145.18;100.00;46554.91;5091350;28;20042;-77
2022/04/14 09:15:15;;;;;;;21.60;13.00;;;;;;;-145.18;100.00;46551.00;5090723;28;20395;-76
2022/04/14 09:17:40;;;;;;;23.33;13.23;;;;;;;-145.18;100.00;46558.81;5086163;28;20033;-77
2022/04/14 09:20:31;;;;;;;26.67;13.57;;;;;;;-145.18;100.00;46552.97;5078089;28;20035;-77
2022/04/14 09:23:18;;;;;;;21.70;13.37;;;;;;;-145.18;100.00;46554.91;5091455;28;20028;-77
2022/04/14 09:25:44;;;;;;;23.03;14.47;;;;;;;-145.18;100.00;46541.25;5090987;28;20031;-77
2022/04/14 09:28:12;;;;;;;19.87;12.33;;;;;;;-145.18;100.00;46558.81;5090362;28;20047;-77
2022/04/14 09:30:37;;;;;;;20.50;11.47;;;;;;;-145.18;100.00;46558.81;5090802;28;20028;-77
2022/04/14 09:33:03;;;;;;;24.87;13.10;;;;;;;-145.18;100.00;46545.16;5091242;28;20438;-77
2022/04/14 09:35:31;;;;;;;21.83;12.63;;;;;;;-145.18;100.00;46545.16;5090142;28;20032;-77
2022/04/14 09:38:14;;;;;;;18.67;11.30;;;;;;;-145.18;100.00;46547.09;5090966;28;20027;-76
2022/04/14 09:40:40;;;;;;;16.53;10.13;;;;;;;-145.18;100.00;46551.00;5090757;28;20541;-77
2022/04/14 09:43:06;;;;;;;19.57;10.30;;;;;;;-145.18;100.00;46592.03;5090871;28;20032;-77
2022/04/14 09:45:33;;;;;;;14.77;9.23;;;;;;;-145.18;100.00;46599.84;5090351;28;20105;-76
2022/04/14 09:48:07;;;;;;;15.17;10.53;;;;;;;-145.18;100.00;46556.88;5090714;28;20086;-77
2022/04/14 09:50:40;;;;;;;14.73;9.90;;;;;;;-145.18;100.00;46556.88;5072239;28;20521;-76
2022/04/14 09:53:11;;;;;;;16.93;9.83;;;;;;;-145.18;100.00;46556.88;5090657;28;20405;-77
2022/04/14 09:55:41;;;;;;;19.47;10.30;;;;;;;-145.18;100.00;46554.91;5090322;28;20016;-77
2022/04/14 09:58:10;;;;;;;19.30;11.33;;;;;;;-145.18;100.00;46562.72;5089949;28;20499;-76
2022/04/14 10:00:45;;;;;;;19.37;11.07;;;;;;;-145.18;100.00;46554.91;5086151;28;20101;-76
2022/04/14 10:03:19;;;;;;;18.13;9.90;;;;;;;-145.18;100.00;46560.78;5085943;28;20044;-77
2022/04/14 10:05:49;;;;;;;22.23;10.07;;;;;;;-145.18;100.00;46570.53;5090124;28;20126;-76
2022/04/14 10:08:16;;;;;;;19.90;11.13;;;;;;;-145.18;100.00;46562.72;5090391;28;20544;-76
2022/04/14 10:10:47;;;;;;;18.60;10.77;;;;;;;-145.18;100.00;46554.91;5090108;28;20063;-76
2022/04/14 10:13:15;;;;;;;14.40;8.77;;;;;;;-145.18;100.00;46554.91;5089963;28;20043;-76
2022/04/14 10:15:42;;;;;;;17.13;9.90;;;;;;;-145.18;100.00;46560.78;5089655;28;20024;-76
2022/04/14 10:18:10;;;;;;;18.03;7.73;;;;;;;-145.18;100.00;46558.81;5089724;28;20024;-76
2022/04/14 10:20:37;;;;;;;23.50;9.60;;;;;;;-145.18;100.00;46558.81;5089218;28;20028;-76
2022/04/14 10:23:04;;;;;;;14.30;8.60;;;;;;;-145.18;100.00;46558.81;5090594;28;20629;-76
2022/04/14 10:25:30;;;;;;;13.97;7.93;;;;;;;-145.18;100.00;46574.44;5087097;28;20032;-76
2022/04/14 10:27:57;;;;;;;12.93;7.10;;;;;;;-145.18;100.00;46564.69;5076051;28;20024;-76
2022/04/14 10:30:23;;;;;;;14.57;9.07;;;;;;;-145.18;100.00;46582.25;5071277;28;20161;-76
2022/04/14 10:32:49;;;;;;;20.50;8.37;;;;;;;-145.18;100.00;46549.06;5090219;28;20043;-76
2022/04/14 10:35:14;;;;;;;13.37;7.40;;;;;;;-145.18;100.00;46588.13;5060407;28;20033;-76
2022/04/14 10:37:46;;;;;;;19.47;10.83;;;;;;;-145.18;100.00;46552.97;5088373;28;20031;-76
2022/04/14 10:40:13;;;;;;;17.43;10.20;;;;;;;-145.18;100.00;46562.72;5089488;28;20032;-76
2022/04/14 10:42:54;;;;;;;23.57;11.70;;;;;;;-145.18;100.00;46568.59;5090115;28;20572;-76
2022/04/14 10:45:25;;;;;;;18.03;10.33;;;;;;;-145.18;100.00;46564.69;5089376;28;20035;-76
2022/04/14 10:47:50;;;;;;;15.70;9.97;;;;;;;-145.18;100.00;46562.72;5089618;28;20489;-76
2022/04/14 10:50:34;;;;;;;23.00;10.17;;;;;;;-145.18;100.00;46599.84;5089407;28;20115;-76